CCM130 LFKJ-LFLL
Flight info
| Callsign | CCM130 |
|---|---|
| Flight time | 0h 49m |
| Altitude | 34000 |
| Route | LONSU1R LONSU M622 PIGOS DCT BODRU DCT KOTIT/N0345F180 Y42 LASUR Z42 PINED PINED9S |
| Aircraft | A320/M-SDE3FGHIRWY/LB1 |
Departure
| Time | 2026-04-25 09:00 |
|---|---|
| Airport | Ajaccio Napoléon Bonaparte airport (LFKJ) |
Arrival
| Time | 2026-04-25 09:49 |
|---|---|
| Airport | Lyon Saint-Exupéry Airport (LFLL) |
| Time | Latitude | Longitude | Altitude | Speed | Heading |
|---|---|---|---|---|---|
| 2026-04-25 08:44 | 41.91970 | 8.79570 | 21 ft | 0 kts | 345° |
| 2026-04-25 08:54 | 41.91973 | 8.79590 | 23 ft | 6 kts | 88° |
| 2026-04-25 08:54 | 41.92001 | 8.79664 | 21 ft | 13 kts | 25° |
| 2026-04-25 08:54 | 41.92089 | 8.79723 | 22 ft | 14 kts | 26° |
| 2026-04-25 08:55 | 41.92169 | 8.79772 | 23 ft | 12 kts | 24° |
| 2026-04-25 08:55 | 41.92238 | 8.79814 | 21 ft | 10 kts | 24° |
| 2026-04-25 08:55 | 41.92296 | 8.79852 | 23 ft | 9 kts | 27° |
| 2026-04-25 08:55 | 41.92347 | 8.79885 | 21 ft | 7 kts | 25° |
| 2026-04-25 08:56 | 41.92392 | 8.79913 | 21 ft | 7 kts | 25° |
| 2026-04-25 08:56 | 41.92443 | 8.79944 | 23 ft | 9 kts | 25° |
| 2026-04-25 08:56 | 41.92509 | 8.79986 | 21 ft | 12 kts | 25° |
| 2026-04-25 08:56 | 41.92597 | 8.80041 | 21 ft | 16 kts | 25° |
| 2026-04-25 08:57 | 41.92706 | 8.80109 | 21 ft | 18 kts | 25° |
| 2026-04-25 08:57 | 41.92803 | 8.80191 | 21 ft | 16 kts | 41° |
| 2026-04-25 08:57 | 41.92876 | 8.80287 | 21 ft | 14 kts | 46° |
| 2026-04-25 08:57 | 41.92940 | 8.80375 | 21 ft | 12 kts | 46° |
| 2026-04-25 08:58 | 41.92963 | 8.80466 | 22 ft | 9 kts | 104° |
| 2026-04-25 08:58 | 41.92949 | 8.80522 | 25 ft | 3 kts | 102° |
| 2026-04-25 08:58 | 41.92949 | 8.80550 | 26 ft | 7 kts | 83° |
| 2026-04-25 08:58 | 41.92925 | 8.80580 | 26 ft | 5 kts | 229° |
| 2026-04-25 08:59 | 41.92905 | 8.80562 | 26 ft | 0 kts | 201° |
| 2026-04-25 08:59 | 41.92853 | 8.80535 | 30 ft | 38 kts | 202° |
| 2026-04-25 08:59 | 41.92373 | 8.80234 | 25 ft | 111 kts | 205° |
| 2026-04-25 08:59 | 41.91496 | 8.79693 | 84 ft | 158 kts | 204° |
| 2026-04-25 09:00 | 41.90497 | 8.79063 | 717 ft | 159 kts | 215° |
| 2026-04-25 09:00 | 41.89839 | 8.77908 | 1381 ft | 157 kts | 243° |
| 2026-04-25 09:00 | 41.89296 | 8.76553 | 1743 ft | 175 kts | 241° |
| 2026-04-25 09:00 | 41.88662 | 8.75037 | 2044 ft | 198 kts | 241° |
| 2026-04-25 09:01 | 41.87939 | 8.73333 | 2347 ft | 222 kts | 240° |
| 2026-04-25 09:01 | 41.87128 | 8.71437 | 2776 ft | 246 kts | 240° |
| 2026-04-25 09:01 | 41.86263 | 8.69423 | 3474 ft | 256 kts | 240° |
| 2026-04-25 09:01 | 41.85358 | 8.67327 | 4321 ft | 262 kts | 240° |
| 2026-04-25 09:02 | 41.84446 | 8.65191 | 5187 ft | 266 kts | 244° |
| 2026-04-25 09:02 | 41.83944 | 8.62797 | 5994 ft | 271 kts | 268° |
| 2026-04-25 09:02 | 41.84244 | 8.60295 | 6794 ft | 276 kts | 293° |
| 2026-04-25 09:02 | 41.85323 | 8.58173 | 7566 ft | 280 kts | 318° |
| 2026-04-25 09:03 | 41.86985 | 8.56813 | 8370 ft | 283 kts | 336° |
| 2026-04-25 09:03 | 41.88798 | 8.55747 | 9203 ft | 286 kts | 336° |
| 2026-04-25 09:03 | 41.90631 | 8.54675 | 10034 ft | 289 kts | 336° |
| 2026-04-25 09:03 | 41.92505 | 8.53581 | 10551 ft | 303 kts | 336° |
| 2026-04-25 09:04 | 41.94515 | 8.52405 | 10792 ft | 326 kts | 336° |
| 2026-04-25 09:04 | 41.96625 | 8.51161 | 11323 ft | 335 kts | 336° |
| 2026-04-25 09:04 | 41.98776 | 8.49889 | 12025 ft | 340 kts | 336° |
| 2026-04-25 09:04 | 42.00948 | 8.48604 | 12777 ft | 342 kts | 336° |
| 2026-04-25 09:05 | 42.03135 | 8.47304 | 13533 ft | 345 kts | 336° |
| 2026-04-25 09:05 | 42.05345 | 8.45988 | 14204 ft | 349 kts | 336° |
| 2026-04-25 09:05 | 42.07584 | 8.44653 | 14821 ft | 353 kts | 336° |
| 2026-04-25 09:05 | 42.09841 | 8.43307 | 15434 ft | 357 kts | 336° |
| 2026-04-25 09:06 | 42.12127 | 8.41945 | 16050 ft | 361 kts | 336° |
| 2026-04-25 09:06 | 42.14442 | 8.40565 | 16610 ft | 366 kts | 336° |
| 2026-04-25 09:06 | 42.16789 | 8.39163 | 17178 ft | 371 kts | 336° |
| 2026-04-25 09:06 | 42.19155 | 8.37748 | 17786 ft | 374 kts | 336° |
| 2026-04-25 09:07 | 42.21513 | 8.36336 | 18381 ft | 378 kts | 336° |
| 2026-04-25 09:07 | 42.23929 | 8.34890 | 18914 ft | 381 kts | 336° |
| 2026-04-25 09:07 | 42.26356 | 8.33437 | 19484 ft | 382 kts | 336° |
| 2026-04-25 09:07 | 42.28784 | 8.31979 | 20105 ft | 382 kts | 336° |
| 2026-04-25 09:08 | 42.31222 | 8.30511 | 20641 ft | 385 kts | 336° |
| 2026-04-25 09:08 | 42.33684 | 8.29032 | 21158 ft | 388 kts | 336° |
| 2026-04-25 09:08 | 42.36166 | 8.27541 | 21682 ft | 391 kts | 336° |
| 2026-04-25 09:08 | 42.38665 | 8.26039 | 22173 ft | 395 kts | 336° |
| 2026-04-25 09:09 | 42.41188 | 8.24518 | 22668 ft | 399 kts | 336° |
| 2026-04-25 09:09 | 42.43737 | 8.22981 | 23150 ft | 403 kts | 336° |
| 2026-04-25 09:09 | 42.46307 | 8.21429 | 23660 ft | 406 kts | 336° |
| 2026-04-25 09:09 | 42.48892 | 8.19866 | 24108 ft | 408 kts | 336° |
| 2026-04-25 09:10 | 42.51493 | 8.18296 | 24509 ft | 411 kts | 336° |
| 2026-04-25 09:10 | 42.54115 | 8.16717 | 24913 ft | 413 kts | 336° |
| 2026-04-25 09:10 | 42.56750 | 8.15130 | 25348 ft | 415 kts | 336° |
| 2026-04-25 09:10 | 42.59390 | 8.13534 | 25763 ft | 417 kts | 336° |
| 2026-04-25 09:11 | 42.64706 | 8.10315 | 26593 ft | 419 kts | 336° |
| 2026-04-25 09:11 | 42.67371 | 8.08694 | 26969 ft | 421 kts | 337° |
| 2026-04-25 09:11 | 42.70058 | 8.07059 | 27360 ft | 423 kts | 337° |
| 2026-04-25 09:12 | 42.72756 | 8.05416 | 27744 ft | 425 kts | 336° |
| 2026-04-25 09:12 | 42.75454 | 8.03771 | 28115 ft | 426 kts | 336° |
| 2026-04-25 09:12 | 42.78155 | 8.02096 | 28503 ft | 427 kts | 335° |
| 2026-04-25 09:12 | 42.80816 | 8.00268 | 28868 ft | 429 kts | 333° |
| 2026-04-25 09:13 | 42.83440 | 7.98301 | 29219 ft | 431 kts | 331° |
| 2026-04-25 09:13 | 42.86043 | 7.96261 | 29553 ft | 433 kts | 330° |
| 2026-04-25 09:13 | 42.88646 | 7.94191 | 29899 ft | 434 kts | 330° |
| 2026-04-25 09:13 | 42.91262 | 7.92121 | 30253 ft | 435 kts | 331° |
| 2026-04-25 09:14 | 42.93897 | 7.90069 | 30519 ft | 436 kts | 331° |
| 2026-04-25 09:14 | 42.96545 | 7.88037 | 30785 ft | 438 kts | 332° |
| 2026-04-25 09:14 | 42.99211 | 7.86012 | 31031 ft | 440 kts | 332° |
| 2026-04-25 09:14 | 43.01889 | 7.83987 | 31262 ft | 441 kts | 331° |
| 2026-04-25 09:15 | 43.04583 | 7.81949 | 31502 ft | 443 kts | 331° |
| 2026-04-25 09:15 | 43.07276 | 7.79902 | 31851 ft | 442 kts | 331° |
| 2026-04-25 09:15 | 43.09955 | 7.77854 | 32199 ft | 440 kts | 331° |
| 2026-04-25 09:15 | 43.12584 | 7.75828 | 32529 ft | 440 kts | 330° |
| 2026-04-25 09:16 | 43.15250 | 7.73762 | 32832 ft | 440 kts | 330° |
| 2026-04-25 09:16 | 43.17912 | 7.71695 | 33128 ft | 440 kts | 330° |
| 2026-04-25 09:16 | 43.20568 | 7.69629 | 33466 ft | 439 kts | 330° |
| 2026-04-25 09:16 | 43.23223 | 7.67567 | 33807 ft | 438 kts | 330° |
| 2026-04-25 09:17 | 43.28513 | 7.63453 | 34411 ft | 437 kts | 330° |
| 2026-04-25 09:17 | 43.31155 | 7.61397 | 34663 ft | 436 kts | 330° |
| 2026-04-25 09:17 | 43.33798 | 7.59340 | 34903 ft | 436 kts | 330° |
| 2026-04-25 09:18 | 43.36437 | 7.57287 | 35163 ft | 435 kts | 330° |
| 2026-04-25 09:18 | 43.39069 | 7.55238 | 35433 ft | 434 kts | 330° |
| 2026-04-25 09:18 | 43.41696 | 7.53194 | 35663 ft | 434 kts | 329° |
| 2026-04-25 09:18 | 43.44330 | 7.51142 | 35878 ft | 434 kts | 329° |
| 2026-04-25 09:19 | 43.46956 | 7.49093 | 36087 ft | 434 kts | 329° |
| 2026-04-25 09:19 | 43.49581 | 7.47038 | 36301 ft | 434 kts | 329° |
| 2026-04-25 09:19 | 43.52210 | 7.44981 | 36506 ft | 434 kts | 329° |
| 2026-04-25 09:19 | 43.54832 | 7.42932 | 36696 ft | 433 kts | 329° |
| 2026-04-25 09:20 | 43.57452 | 7.40882 | 36893 ft | 433 kts | 329° |
| 2026-04-25 09:20 | 43.60054 | 7.38800 | 37125 ft | 431 kts | 325° |
| 2026-04-25 09:20 | 43.62403 | 7.36352 | 37425 ft | 426 kts | 316° |
| 2026-04-25 09:20 | 43.64450 | 7.33428 | 37701 ft | 422 kts | 308° |
| 2026-04-25 09:21 | 43.66312 | 7.30310 | 37985 ft | 419 kts | 308° |
| 2026-04-25 09:21 | 43.68174 | 7.27198 | 38095 ft | 421 kts | 308° |
| 2026-04-25 09:21 | 43.70048 | 7.24072 | 38112 ft | 424 kts | 308° |
| 2026-04-25 09:22 | 43.73823 | 7.17762 | 38110 ft | 426 kts | 308° |
| 2026-04-25 09:22 | 43.77594 | 7.11425 | 38112 ft | 426 kts | 308° |
| 2026-04-25 09:23 | 43.80723 | 7.06159 | 38104 ft | 426 kts | 308° |
| 2026-04-25 09:23 | 43.84489 | 6.99812 | 38107 ft | 427 kts | 308° |
| 2026-04-25 09:24 | 43.88293 | 6.93398 | 38101 ft | 434 kts | 308° |
| 2026-04-25 09:24 | 43.92147 | 6.86867 | 38100 ft | 440 kts | 308° |
| 2026-04-25 09:25 | 43.96035 | 6.80263 | 38096 ft | 443 kts | 308° |
| 2026-04-25 09:25 | 43.99939 | 6.73621 | 38095 ft | 443 kts | 308° |
| 2026-04-25 09:26 | 44.03816 | 6.67018 | 38102 ft | 444 kts | 308° |
| 2026-04-25 09:26 | 44.07741 | 6.60331 | 38109 ft | 444 kts | 308° |
| 2026-04-25 09:27 | 44.11608 | 6.53714 | 38109 ft | 443 kts | 308° |
| 2026-04-25 09:27 | 44.15490 | 6.47050 | 38110 ft | 443 kts | 307° |
| 2026-04-25 09:28 | 44.19363 | 6.40378 | 38114 ft | 442 kts | 308° |
| 2026-04-25 09:28 | 44.23231 | 6.33714 | 37980 ft | 441 kts | 308° |
| 2026-04-25 09:28 | 44.25154 | 6.30391 | 37699 ft | 441 kts | 308° |
| 2026-04-25 09:29 | 44.27084 | 6.27051 | 37423 ft | 441 kts | 308° |
| 2026-04-25 09:29 | 44.29010 | 6.23711 | 37152 ft | 442 kts | 308° |
| 2026-04-25 09:29 | 44.30941 | 6.20360 | 36890 ft | 442 kts | 308° |
| 2026-04-25 09:29 | 44.32869 | 6.17017 | 36626 ft | 443 kts | 308° |
| 2026-04-25 09:30 | 44.34808 | 6.13657 | 36365 ft | 443 kts | 308° |
| 2026-04-25 09:30 | 44.36741 | 6.10295 | 36108 ft | 444 kts | 308° |
| 2026-04-25 09:30 | 44.38639 | 6.06988 | 35863 ft | 445 kts | 307° |
| 2026-04-25 09:30 | 44.40616 | 6.03544 | 35603 ft | 446 kts | 307° |
| 2026-04-25 09:31 | 44.42534 | 6.00201 | 35363 ft | 447 kts | 308° |
| 2026-04-25 09:31 | 44.44479 | 5.96808 | 35125 ft | 448 kts | 307° |
| 2026-04-25 09:31 | 44.46427 | 5.93404 | 34883 ft | 449 kts | 307° |
| 2026-04-25 09:31 | 44.48376 | 5.89993 | 34638 ft | 449 kts | 307° |
| 2026-04-25 09:32 | 44.50326 | 5.86574 | 34397 ft | 449 kts | 307° |
| 2026-04-25 09:32 | 44.52272 | 5.83159 | 34055 ft | 445 kts | 307° |
| 2026-04-25 09:32 | 44.54173 | 5.79824 | 33990 ft | 436 kts | 307° |
| 2026-04-25 09:32 | 44.56065 | 5.76497 | 33211 ft | 438 kts | 307° |
| 2026-04-25 09:33 | 44.57976 | 5.73170 | 32479 ft | 437 kts | 310° |
| 2026-04-25 09:33 | 44.60239 | 5.70325 | 31602 ft | 441 kts | 326° |
| 2026-04-25 09:33 | 44.62969 | 5.68370 | 30803 ft | 440 kts | 335° |
| 2026-04-25 09:33 | 44.65752 | 5.66652 | 29671 ft | 434 kts | 335° |
| 2026-04-25 09:34 | 44.68497 | 5.64961 | 28539 ft | 427 kts | 335° |
| 2026-04-25 09:34 | 44.71192 | 5.63297 | 27488 ft | 419 kts | 335° |
| 2026-04-25 09:34 | 44.73840 | 5.61657 | 26145 ft | 416 kts | 335° |
| 2026-04-25 09:34 | 44.76525 | 5.59984 | 24344 ft | 428 kts | 335° |
| 2026-04-25 09:35 | 44.79269 | 5.58270 | 22471 ft | 433 kts | 335° |
| 2026-04-25 09:35 | 44.82032 | 5.56541 | 20821 ft | 433 kts | 335° |
| 2026-04-25 09:35 | 44.84769 | 5.54830 | 19443 ft | 427 kts | 335° |
| 2026-04-25 09:35 | 44.87462 | 5.53147 | 18144 ft | 420 kts | 335° |
| 2026-04-25 09:36 | 44.90116 | 5.51491 | 16829 ft | 412 kts | 335° |
| 2026-04-25 09:36 | 44.92678 | 5.49894 | 15623 ft | 404 kts | 335° |
| 2026-04-25 09:36 | 44.95224 | 5.48304 | 14430 ft | 398 kts | 335° |
| 2026-04-25 09:36 | 44.97779 | 5.46702 | 13242 ft | 398 kts | 334° |
| 2026-04-25 09:37 | 45.00269 | 5.45133 | 12554 ft | 395 kts | 335° |
| 2026-04-25 09:37 | 45.02759 | 5.43563 | 11942 ft | 389 kts | 335° |
| 2026-04-25 09:37 | 45.05210 | 5.42018 | 11462 ft | 380 kts | 335° |
| 2026-04-25 09:37 | 45.07574 | 5.40533 | 11320 ft | 362 kts | 335° |
| 2026-04-25 09:38 | 45.09830 | 5.39117 | 11203 ft | 346 kts | 335° |
| 2026-04-25 09:38 | 45.11982 | 5.37762 | 11088 ft | 331 kts | 335° |
| 2026-04-25 09:38 | 45.14040 | 5.36461 | 10958 ft | 317 kts | 336° |
| 2026-04-25 09:38 | 45.16015 | 5.35211 | 10849 ft | 305 kts | 336° |
| 2026-04-25 09:39 | 45.17915 | 5.34007 | 10724 ft | 294 kts | 336° |
| 2026-04-25 09:39 | 45.19749 | 5.32845 | 10560 ft | 285 kts | 336° |
| 2026-04-25 09:39 | 45.21538 | 5.31711 | 10419 ft | 279 kts | 336° |
| 2026-04-25 09:40 | 45.25082 | 5.29462 | 10241 ft | 279 kts | 336° |
| 2026-04-25 09:40 | 45.26853 | 5.28339 | 10125 ft | 278 kts | 336° |
| 2026-04-25 09:40 | 45.28640 | 5.27206 | 9579 ft | 284 kts | 336° |
| 2026-04-25 09:40 | 45.30393 | 5.26094 | 9193 ft | 275 kts | 336° |
| 2026-04-25 09:41 | 45.32143 | 5.24983 | 8485 ft | 275 kts | 336° |
| 2026-04-25 09:41 | 45.33884 | 5.23879 | 7860 ft | 272 kts | 336° |
| 2026-04-25 09:41 | 45.35600 | 5.22790 | 7322 ft | 268 kts | 336° |
| 2026-04-25 09:41 | 45.37317 | 5.21699 | 6787 ft | 273 kts | 336° |
| 2026-04-25 09:42 | 45.39044 | 5.20597 | 6480 ft | 270 kts | 336° |
| 2026-04-25 09:42 | 45.40772 | 5.19495 | 5784 ft | 273 kts | 336° |
| 2026-04-25 09:42 | 45.42462 | 5.18415 | 5157 ft | 269 kts | 336° |
| 2026-04-25 09:42 | 45.44142 | 5.17341 | 4945 ft | 248 kts | 336° |
| 2026-04-25 09:43 | 45.45634 | 5.16385 | 4885 ft | 224 kts | 337° |
| 2026-04-25 09:43 | 45.47012 | 5.15502 | 4821 ft | 212 kts | 336° |
| 2026-04-25 09:43 | 45.48321 | 5.14663 | 4719 ft | 205 kts | 336° |
| 2026-04-25 09:43 | 45.49596 | 5.13842 | 4633 ft | 196 kts | 336° |
| 2026-04-25 09:44 | 45.50822 | 5.13056 | 4550 ft | 191 kts | 336° |
| 2026-04-25 09:44 | 45.52027 | 5.12283 | 4466 ft | 190 kts | 336° |
| 2026-04-25 09:44 | 45.53275 | 5.11676 | 4269 ft | 189 kts | 353° |
| 2026-04-25 09:44 | 45.54605 | 5.11477 | 4031 ft | 190 kts | 355° |
| 2026-04-25 09:45 | 45.55906 | 5.11319 | 3800 ft | 190 kts | 355° |
| 2026-04-25 09:45 | 45.57246 | 5.11157 | 3551 ft | 196 kts | 355° |
| 2026-04-25 09:45 | 45.58591 | 5.10994 | 3306 ft | 193 kts | 355° |
| 2026-04-25 09:45 | 45.59932 | 5.10832 | 3028 ft | 192 kts | 355° |
| 2026-04-25 09:46 | 45.61234 | 5.10675 | 2765 ft | 183 kts | 355° |
| 2026-04-25 09:46 | 45.62460 | 5.10527 | 2523 ft | 170 kts | 355° |
| 2026-04-25 09:46 | 45.63588 | 5.10390 | 2338 ft | 155 kts | 355° |
| 2026-04-25 09:46 | 45.64625 | 5.10264 | 2133 ft | 146 kts | 355° |
| 2026-04-25 09:47 | 45.65624 | 5.10143 | 1931 ft | 142 kts | 355° |
| 2026-04-25 09:47 | 45.66605 | 5.10024 | 1741 ft | 141 kts | 355° |
| 2026-04-25 09:47 | 45.67584 | 5.09905 | 1550 ft | 141 kts | 354° |
| 2026-04-25 09:47 | 45.68563 | 5.09787 | 1365 ft | 141 kts | 355° |
| 2026-04-25 09:48 | 45.69537 | 5.09665 | 1174 ft | 141 kts | 355° |
| 2026-04-25 09:48 | 45.70509 | 5.09548 | 996 ft | 140 kts | 355° |
| 2026-04-25 09:48 | 45.71472 | 5.09436 | 834 ft | 132 kts | 355° |
| 2026-04-25 09:48 | 45.72277 | 5.09344 | 815 ft | 90 kts | 356° |
| 2026-04-25 09:49 | 45.72647 | 5.09290 | 807 ft | 36 kts | 355° |
| 2026-04-25 09:49 | 45.72878 | 5.09163 | 801 ft | 35 kts | 325° |
| 2026-04-25 09:49 | 45.72970 | 5.08942 | 792 ft | 27 kts | 263° |
| 2026-04-25 09:49 | 45.72949 | 5.08686 | 792 ft | 26 kts | 267° |
| 2026-04-25 09:50 | 45.72939 | 5.08457 | 790 ft | 21 kts | 264° |
| 2026-04-25 09:50 | 45.72850 | 5.08358 | 790 ft | 15 kts | 176° |
| 2026-04-25 09:50 | 45.72829 | 5.08360 | 790 ft | 0 kts | 177° |
| 2026-04-25 09:51 | 45.72806 | 5.08361 | 791 ft | 6 kts | 176° |
| 2026-04-25 09:51 | 45.72773 | 5.08364 | 791 ft | 4 kts | 176° |
| 2026-04-25 09:51 | 45.72749 | 5.08366 | 791 ft | 3 kts | 179° |
| 2026-04-25 09:52 | 45.72731 | 5.08367 | 791 ft | 2 kts | 177° |
| 2026-04-25 09:52 | 45.72718 | 5.08368 | 791 ft | 1 kts | 176° |
| 2026-04-25 09:52 | 45.72713 | 5.08369 | 791 ft | 0 kts | 174° |
| 2026-04-25 09:52 | 45.72706 | 5.08370 | 791 ft | 5 kts | 173° |
| 2026-04-25 09:53 | 45.72641 | 5.08378 | 792 ft | 10 kts | 176° |
| 2026-04-25 09:53 | 45.72589 | 5.08385 | 795 ft | 5 kts | 174° |
| 2026-04-25 09:53 | 45.72572 | 5.08387 | 796 ft | 2 kts | 175° |
| 2026-04-25 09:53 | 45.72550 | 5.08389 | 796 ft | 5 kts | 175° |
| 2026-04-25 09:54 | 45.72505 | 5.08395 | 796 ft | 9 kts | 175° |
| 2026-04-25 09:54 | 45.72429 | 5.08403 | 797 ft | 13 kts | 175° |
| 2026-04-25 09:54 | 45.72327 | 5.08414 | 799 ft | 16 kts | 176° |
| 2026-04-25 09:54 | 45.72262 | 5.08356 | 799 ft | 10 kts | 251° |
| 2026-04-25 09:55 | 45.72204 | 5.08319 | 798 ft | 10 kts | 175° |
| 2026-04-25 09:55 | 45.72119 | 5.08296 | 798 ft | 15 kts | 199° |
| 2026-04-25 09:55 | 45.72000 | 5.08244 | 797 ft | 20 kts | 196° |
| 2026-04-25 09:55 | 45.71939 | 5.08215 | 797 ft | 3 kts | 219° |
| 2026-04-25 09:56 | 45.71936 | 5.08190 | 797 ft | 2 kts | 263° |
| 2026-04-25 09:56 | 45.71934 | 5.08168 | 796 ft | 2 kts | 262° |
| 2026-04-25 09:56 | 45.71932 | 5.08149 | 796 ft | 2 kts | 262° |
| 2026-04-25 09:56 | 45.71936 | 5.08119 | 796 ft | 4 kts | 286° |
| 2026-04-25 09:57 | 45.71940 | 5.08098 | 796 ft | 1 kts | 285° |
| 2026-04-25 09:57 | 45.71941 | 5.08097 | 797 ft | 0 kts | 285° |
| 2026-04-25 09:57 | 45.71941 | 5.08092 | 797 ft | 0 kts | 285° |
| 2026-04-25 09:57 | 45.71942 | 5.08087 | 797 ft | 0 kts | 285° |
| 2026-04-25 09:58 | 45.71943 | 5.08086 | 797 ft | 0 kts | 285° |